createdAt,value
2018-12-11T00:00:17.650Z,97588.30
2018-12-11T00:02:57.371Z,97585.83
2018-12-11T00:05:31.955Z,97585.61
2018-12-11T00:08:04.395Z,97582.12
2018-12-11T00:10:36.298Z,97588.17
2018-12-11T00:33:20.203Z,97599.75
2018-12-11T00:35:56.360Z,97594.85
2018-12-11T00:38:29.510Z,97589.51
2018-12-11T00:41:02.181Z,97587.22
2018-12-11T00:43:32.196Z,97581.08
2018-12-11T00:46:05.403Z,97586.11
2018-12-11T00:48:38.959Z,97591.33
2018-12-11T00:51:11.279Z,97592.32
2018-12-11T00:53:44.981Z,97590.19
2018-12-11T00:56:17.341Z,97590.13
2018-12-11T00:58:49.605Z,97587.04
2018-12-11T01:01:21.858Z,97589.80
2018-12-11T01:03:54.536Z,97578.40
2018-12-11T01:06:31.464Z,97584.66
2018-12-11T01:09:07.941Z,97589.16
2018-12-11T01:11:40.715Z,97586.71
2018-12-11T01:14:12.947Z,97587.77
2018-12-11T01:16:45.213Z,97591.08
2018-12-11T01:19:21.546Z,97597.45
2018-12-11T01:21:57.890Z,97597.19
2018-12-11T01:24:34.097Z,97604.34
2018-12-11T01:27:06.494Z,97616.58
2018-12-11T01:29:39.421Z,97618.23
2018-12-11T01:32:11.423Z,97623.44
2018-12-11T01:37:15.736Z,97616.92
2018-12-11T01:39:48.136Z,97607.72
2018-12-11T01:42:20.371Z,97603.58
2018-12-11T01:44:56.685Z,97605.44
2018-12-11T01:47:32.738Z,97595.13
2018-12-11T01:50:09.126Z,97603.72
2018-12-11T01:52:41.478Z,97597.61
2018-12-11T01:55:17.642Z,97588.84
2018-12-11T01:57:50.674Z,97589.75
2018-12-11T02:00:24.000Z,97583.83
2018-12-11T02:03:00.213Z,97590.86
2018-12-11T02:05:36.305Z,97576.66
2018-12-11T02:08:12.576Z,97578.71
2018-12-11T02:10:48.878Z,97576.68
2018-12-11T02:13:19.167Z,97577.49
2018-12-11T02:15:51.397Z,97579.98
2018-12-11T02:18:23.735Z,97576.88
2018-12-11T02:20:53.484Z,97573.75
2018-12-11T02:23:26.385Z,97574.70
2018-12-11T02:25:59.212Z,97586.16
2018-12-11T02:28:35.543Z,97581.95
2018-12-11T02:31:11.704Z,97579.95
2018-12-11T02:33:44.280Z,97580.73
2018-12-11T02:41:13.121Z,97591.89
2018-12-11T02:43:45.205Z,97591.61
2018-12-11T02:46:15.105Z,97587.14
2018-12-11T02:48:47.876Z,97583.39
2018-12-11T02:51:24.322Z,97588.89
2018-12-11T02:54:00.439Z,97590.46
2018-12-11T02:56:32.408Z,97585.53
2018-12-11T02:59:04.582Z,97576.30
2018-12-11T03:01:37.208Z,97578.89
2018-12-11T03:04:06.753Z,97572.48
2018-12-11T03:06:39.682Z,97558.56
2018-12-11T03:09:12.667Z,97571.59
2018-12-11T03:11:49.196Z,97568.13
2018-12-11T03:14:21.322Z,97581.80
2018-12-11T03:16:52.129Z,97586.77
2018-12-11T03:19:24.677Z,97575.48
2018-12-11T03:21:57.081Z,97575.78
2018-12-11T03:24:29.109Z,97575.41
2018-12-11T03:27:02.027Z,97577.84
2018-12-11T03:29:34.050Z,97581.55
2018-12-11T03:32:10.951Z,97576.24
2018-12-11T03:34:44.181Z,97581.79
2018-12-11T03:37:16.752Z,97580.62
2018-12-11T03:39:51.321Z,97570.74
2018-12-11T03:42:27.580Z,97574.20
2018-12-11T03:45:01.088Z,97566.67
2018-12-11T03:47:38.042Z,97571.55
2018-12-11T03:50:11.972Z,97567.98
2018-12-11T03:52:45.538Z,97575.69
2018-12-11T03:55:25.577Z,97580.40
2018-12-11T03:57:58.555Z,97576.70
2018-12-11T04:00:35.748Z,97576.36
2018-12-11T04:03:09.197Z,97572.95
2018-12-11T04:05:46.515Z,97576.95
2018-12-11T04:08:23.335Z,97574.84
2018-12-11T04:10:56.637Z,97575.74
2018-12-11T04:13:33.310Z,97571.05
2018-12-11T04:16:06.675Z,97571.05
2018-12-11T04:18:39.682Z,97579.34
2018-12-11T04:21:12.916Z,97583.00
2018-12-11T04:23:46.157Z,97587.44
2018-12-11T04:26:18.984Z,97580.79
2018-12-11T04:28:49.442Z,97588.70
2018-12-11T04:31:26.183Z,97577.03
2018-12-11T04:33:57.803Z,97573.81
2018-12-11T04:36:31.709Z,97580.41
2018-12-11T04:39:01.954Z,97581.85
2018-12-11T04:41:34.097Z,97587.67
2018-12-11T04:44:05.126Z,97591.34
2018-12-11T04:46:34.998Z,97587.58
2018-12-11T04:49:12.155Z,97586.39
2018-12-11T04:51:44.407Z,97584.79
2018-12-11T04:54:20.691Z,97580.52
2018-12-11T04:56:59.304Z,97599.06
2018-12-11T04:59:48.135Z,97591.69
2018-12-11T05:02:21.040Z,97584.59
2018-12-11T05:04:53.110Z,97585.78
2018-12-11T05:07:25.303Z,97586.05
2018-12-11T05:09:58.115Z,97580.07
2018-12-11T05:12:30.624Z,97582.10
2018-12-11T05:15:02.518Z,97568.83
2018-12-11T05:17:34.502Z,97573.72
2018-12-11T05:20:10.750Z,97569.95
2018-12-11T05:22:46.945Z,97567.36
2018-12-11T05:25:19.056Z,97564.75
2018-12-11T05:27:50.970Z,97569.06
2018-12-11T05:30:23.072Z,97567.77
2018-12-11T05:32:55.070Z,97565.61
2018-12-11T05:35:27.296Z,97565.61
2018-12-11T05:38:03.443Z,97567.00
2018-12-11T05:40:35.453Z,97572.34
2018-12-11T05:43:11.560Z,97571.11
2018-12-11T05:45:48.265Z,97559.98
2018-12-11T05:48:24.588Z,97564.44
2018-12-11T05:50:56.615Z,97561.11
2018-12-11T05:53:28.810Z,97557.86
2018-12-11T05:56:02.605Z,97553.47
2018-12-11T05:58:38.850Z,97554.89
2018-12-11T06:01:11.100Z,97551.45
2018-12-11T06:03:43.126Z,97547.64
2018-12-11T06:06:16.157Z,97550.66
2018-12-11T06:08:48.515Z,97554.05
2018-12-11T06:11:20.491Z,97548.88
2018-12-11T06:13:56.564Z,97556.83
2018-12-11T06:16:28.977Z,97561.63
2018-12-11T06:19:01.078Z,97559.00
2018-12-11T06:21:31.053Z,97563.34
2018-12-11T06:24:01.560Z,97560.83
2018-12-11T06:26:31.475Z,97552.86
2018-12-11T06:29:01.703Z,97571.34
2018-12-11T06:31:31.668Z,97565.16
2018-12-11T06:34:03.942Z,97568.09
2018-12-11T06:36:39.899Z,97569.20
2018-12-11T06:39:15.832Z,97570.33
2018-12-11T06:41:48.999Z,97573.16
2018-12-11T06:44:20.967Z,97574.95
2018-12-11T06:46:53.141Z,97565.00
2018-12-11T06:49:25.104Z,97559.81
2018-12-11T06:57:02.040Z,97561.91
2018-12-11T06:59:34.187Z,97562.50
2018-12-11T07:02:06.385Z,97566.20
2018-12-11T07:04:36.116Z,97556.17
2018-12-11T07:07:08.254Z,97558.78
2018-12-11T07:09:38.452Z,97560.94
2018-12-11T07:12:10.690Z,97570.48
2018-12-11T07:14:42.778Z,97570.89
2018-12-11T07:17:15.071Z,97570.88
2018-12-11T07:19:46.876Z,97573.37
2018-12-11T07:22:23.189Z,97571.22
2018-12-11T07:24:59.188Z,97576.53
2018-12-11T07:27:29.207Z,97579.12
2018-12-11T07:30:01.263Z,97567.84
2018-12-11T07:32:33.353Z,97571.68
2018-12-11T07:35:05.285Z,97573.91
2018-12-11T07:37:35.235Z,97570.91
2018-12-11T07:40:07.327Z,97569.72
2018-12-11T07:42:39.789Z,97577.08
2018-12-11T07:45:12.144Z,97576.34
2018-12-11T07:47:44.978Z,97577.42
2018-12-11T07:50:21.170Z,97574.91
2018-12-11T07:52:51.292Z,97583.16
2018-12-11T07:55:24.254Z,97554.78
2018-12-11T07:57:57.184Z,97582.82
2018-12-11T08:00:33.243Z,97576.75
2018-12-11T08:03:05.351Z,97583.69
2018-12-11T08:05:37.720Z,97583.52
2018-12-11T08:08:14.779Z,97577.13
2018-12-11T08:10:47.928Z,97579.18
2018-12-11T08:13:19.987Z,97583.03
2018-12-11T08:15:56.030Z,97582.99
2018-12-11T08:18:32.203Z,97591.91
2018-12-11T08:21:08.441Z,97594.52
2018-12-11T08:23:40.625Z,97589.48
2018-12-11T08:26:12.939Z,97598.33
2018-12-11T08:28:45.701Z,97590.84
2018-12-11T08:31:22.204Z,97591.23
2018-12-11T08:33:54.307Z,97584.59
2018-12-11T08:36:30.278Z,97586.17
2018-12-11T08:39:00.330Z,97584.20
2018-12-11T08:41:32.247Z,97579.05
2018-12-11T08:44:08.322Z,97581.09
2018-12-11T08:46:40.822Z,97585.60
2018-12-11T08:49:13.480Z,97580.18
2018-12-11T08:51:46.234Z,97579.11
2018-12-11T08:54:18.894Z,97578.56
2018-12-11T08:56:51.567Z,97583.59
2018-12-11T08:59:23.733Z,97585.30
2018-12-11T09:01:56.352Z,97587.92
2018-12-11T09:04:28.475Z,97586.59
2018-12-11T09:07:00.671Z,97587.72
2018-12-11T09:09:33.590Z,97591.31
2018-12-11T09:12:05.876Z,97589.69
2018-12-11T09:14:38.055Z,97585.97
2018-12-11T09:17:10.616Z,97580.60
2018-12-11T09:19:42.634Z,97586.09
2018-12-11T09:22:14.873Z,97583.52
2018-12-11T09:24:51.365Z,97574.12
2018-12-11T09:27:23.831Z,97566.11
2018-12-11T09:29:55.980Z,97568.05
2018-12-11T09:32:28.989Z,97567.67
2018-12-11T09:35:01.212Z,97559.72
2018-12-11T09:37:33.711Z,97562.48
2018-12-11T09:40:06.144Z,97562.47
2018-12-11T09:42:39.070Z,97560.65
2018-12-11T09:45:11.206Z,97548.11
2018-12-11T09:47:43.726Z,97553.37
2018-12-11T09:50:20.531Z,97553.41
2018-12-11T09:52:51.592Z,97547.46
2018-12-11T09:55:24.910Z,97549.71
2018-12-11T10:00:31.779Z,97548.95
2018-12-11T10:03:04.680Z,97552.13
2018-12-11T10:05:37.312Z,97552.03
2018-12-11T10:08:09.528Z,97547.78
2018-12-11T10:10:42.493Z,97546.86
2018-12-11T10:13:14.681Z,97549.78
2018-12-11T10:15:51.001Z,97548.84
2018-12-11T10:18:21.238Z,97549.60
2018-12-11T10:20:57.351Z,97548.77
2018-12-11T10:23:31.938Z,97549.00
2018-12-11T10:26:09.050Z,97542.65
2018-12-11T10:28:39.841Z,97529.97
2018-12-11T10:31:12.781Z,97543.65
2018-12-11T10:33:45.229Z,97538.75
2018-12-11T10:36:18.060Z,97532.02
2018-12-11T10:38:50.739Z,97529.49
2018-12-11T10:41:22.779Z,97524.31
2018-12-11T10:43:53.660Z,97516.52
2018-12-11T10:46:33.749Z,97520.68
2018-12-11T10:49:07.908Z,97533.78
2018-12-11T10:51:44.007Z,97533.43
2018-12-11T10:54:16.173Z,97528.42
2018-12-11T10:56:48.362Z,97529.34
2018-12-11T10:59:25.492Z,97519.19
2018-12-11T11:02:04.211Z,97530.98
2018-12-11T11:04:36.579Z,97529.64
2018-12-11T11:07:13.687Z,97520.07
2018-12-11T11:09:49.871Z,97513.88
2018-12-11T11:12:22.367Z,97513.98
2018-12-11T11:14:54.449Z,97518.39
2018-12-11T11:17:25.691Z,97516.24
2018-12-11T11:19:57.986Z,97515.27
2018-12-11T11:22:30.455Z,97509.70
2018-12-11T11:25:02.768Z,97505.03
2018-12-11T11:27:35.759Z,97506.06
2018-12-11T11:30:06.914Z,97498.05
2018-12-11T11:32:39.356Z,97491.52
2018-12-11T11:35:15.429Z,97495.73
2018-12-11T11:37:47.462Z,97492.41
2018-12-11T11:40:20.126Z,97490.54
2018-12-11T11:42:52.409Z,97489.58
2018-12-11T11:45:28.635Z,97505.09
2018-12-11T11:48:02.445Z,97488.80
2018-12-11T11:50:33.091Z,97486.20
2018-12-11T11:53:05.935Z,97490.33
2018-12-11T11:55:38.389Z,97484.75
2018-12-11T11:58:10.595Z,97484.03
2018-12-11T12:13:22.601Z,97484.28
2018-12-11T12:15:52.998Z,97481.13
2018-12-11T12:18:25.267Z,97479.73
2018-12-11T12:20:56.396Z,97485.69
2018-12-11T12:23:26.551Z,97478.14
2018-12-11T12:25:58.671Z,97478.62
2018-12-11T12:28:30.950Z,97484.38
2018-12-11T12:31:04.425Z,97483.33
2018-12-11T12:33:37.018Z,97484.66
2018-12-11T12:36:10.101Z,97487.63
2018-12-11T12:38:43.066Z,97487.82
2018-12-11T12:41:13.891Z,97489.59
2018-12-11T12:43:46.076Z,97485.30
2018-12-11T12:46:18.554Z,97492.17
2018-12-11T12:48:51.059Z,97490.48
2018-12-11T12:51:23.421Z,97493.98
2018-12-11T12:54:00.383Z,97489.18
2018-12-11T12:56:36.543Z,97493.86
2018-12-11T12:59:12.643Z,97493.46
2018-12-11T13:01:45.571Z,97498.08
2018-12-11T13:04:21.809Z,97492.24
2018-12-11T13:06:57.895Z,97486.88
2018-12-11T13:09:27.978Z,97485.11
2018-12-11T13:11:58.074Z,97487.04
2018-12-11T13:19:32.241Z,97510.67
2018-12-11T13:22:06.208Z,97514.72
2018-12-11T13:24:38.620Z,97520.78
2018-12-11T13:27:16.459Z,97506.70
2018-12-11T13:29:49.261Z,97508.08
2018-12-11T13:32:25.289Z,97511.75
2018-12-11T13:34:57.467Z,97515.70
2018-12-11T13:37:27.739Z,97528.05
2018-12-11T13:40:00.589Z,97517.26
2018-12-11T13:42:32.643Z,97522.67
2018-12-11T13:45:03.941Z,97519.70
2018-12-11T13:47:36.599Z,97528.09
2018-12-11T13:50:12.737Z,97531.86
2018-12-11T13:52:45.178Z,97540.27
2018-12-11T13:55:22.127Z,97547.50
2018-12-11T13:57:54.376Z,97547.59
2018-12-11T14:00:31.522Z,97549.02
2018-12-11T14:03:01.712Z,97543.65
2018-12-11T14:05:38.863Z,97552.67
2018-12-11T14:08:11.839Z,97549.36
2018-12-11T14:10:43.945Z,97544.35
2018-12-11T14:13:20.894Z,97553.40
2018-12-11T14:15:53.183Z,97558.03
2018-12-11T14:18:23.551Z,97553.67
2018-12-11T14:20:59.786Z,97557.30
2018-12-11T14:23:31.913Z,97567.24
2018-12-11T14:26:04.837Z,97566.35
2018-12-11T14:28:37.205Z,97562.68
2018-12-11T14:31:08.248Z,97563.41
2018-12-11T14:33:41.371Z,97557.44
2018-12-11T14:36:15.282Z,97570.48
2018-12-11T14:38:52.782Z,97559.62
2018-12-11T14:41:26.050Z,97559.21
2018-12-11T14:43:58.880Z,97567.99
2018-12-11T14:46:31.022Z,97562.44
2018-12-11T14:49:07.347Z,97567.16
2018-12-11T14:51:44.339Z,97566.08
2018-12-11T14:54:17.365Z,97568.23
2018-12-11T14:56:49.847Z,97568.75
2018-12-11T14:59:22.059Z,97570.36
2018-12-11T15:01:54.322Z,97577.33
2018-12-11T15:04:27.353Z,97575.39
2018-12-11T15:07:03.639Z,97579.31
2018-12-11T15:09:45.876Z,97582.91
2018-12-11T15:12:18.770Z,97582.40
2018-12-11T15:14:50.935Z,97590.88
2018-12-11T15:17:20.927Z,97587.45
2018-12-11T15:22:19.920Z,97592.47
2018-12-11T15:24:52.317Z,97590.51
2018-12-11T15:27:28.391Z,97589.62
2018-12-11T15:30:01.605Z,97592.40
2018-12-11T15:32:35.016Z,97588.98
2018-12-11T15:35:07.388Z,97600.17
2018-12-11T15:37:39.596Z,97604.03
2018-12-11T15:40:12.406Z,97596.80
2018-12-11T15:42:42.610Z,97606.00
2018-12-11T15:45:15.986Z,97609.20
2018-12-11T15:47:49.073Z,97599.36
2018-12-11T15:50:21.396Z,97602.92
2018-12-11T15:53:00.474Z,97605.09
2018-12-11T15:55:38.074Z,97606.66
2018-12-11T15:58:15.198Z,97612.01
2018-12-11T16:00:56.160Z,97612.37
2018-12-11T16:03:31.785Z,97618.47
2018-12-11T16:06:05.534Z,97622.72
2018-12-11T16:08:38.744Z,97627.73
2018-12-11T16:11:11.772Z,97631.75
2018-12-11T16:13:46.207Z,97631.03
2018-12-11T16:16:18.760Z,97628.02
2018-12-11T16:18:56.505Z,97632.13
2018-12-11T16:21:28.612Z,97634.38
2018-12-11T16:29:06.534Z,97634.80
2018-12-11T16:31:43.935Z,97633.45
2018-12-11T16:34:16.850Z,97639.91
2018-12-11T16:36:49.369Z,97641.14
2018-12-11T16:39:22.658Z,97633.37
2018-12-11T16:41:57.628Z,97643.34
2018-12-11T16:44:31.028Z,97642.64
2018-12-11T16:47:03.689Z,97647.07
2018-12-11T16:49:38.231Z,97649.73
2018-12-11T16:52:09.654Z,97656.77
2018-12-11T16:54:42.803Z,97656.24
2018-12-11T16:57:17.839Z,97661.89
2018-12-11T16:59:48.354Z,97660.48
2018-12-11T17:02:20.687Z,97674.33
2018-12-11T17:04:51.609Z,97669.99
2018-12-11T17:07:24.370Z,97670.85
2018-12-11T17:10:02.445Z,97671.42
2018-12-11T17:12:37.393Z,97666.84
2018-12-11T17:15:15.716Z,97667.83
2018-12-11T17:17:50.168Z,97668.64
2018-12-11T17:20:23.957Z,97663.48
2018-12-11T17:22:54.757Z,97666.06
2018-12-11T17:25:24.807Z,97668.72
2018-12-11T17:27:56.844Z,97670.80
2018-12-11T17:38:03.497Z,97681.48
2018-12-11T17:40:36.527Z,97681.39
2018-12-11T17:43:10.709Z,97675.53
2018-12-11T17:45:46.127Z,97678.12
2018-12-11T17:48:20.784Z,97677.89
2018-12-11T17:50:55.284Z,97674.75
2018-12-11T17:53:28.550Z,97666.87
2018-12-11T17:56:00.924Z,97668.55
2018-12-11T17:58:39.436Z,97675.43
2018-12-11T18:01:19.793Z,97678.38
2018-12-11T18:03:57.802Z,97679.62
2018-12-11T18:06:31.390Z,97685.95
2018-12-11T18:09:05.298Z,97677.31
2018-12-11T18:11:42.915Z,97680.77
2018-12-11T18:14:20.605Z,97684.78
2018-12-11T18:16:55.333Z,97691.70
2018-12-11T18:19:31.030Z,97695.31
2018-12-11T18:22:04.022Z,97694.97
2018-12-11T18:24:38.946Z,97696.04
2018-12-11T18:27:12.002Z,97692.02
2018-12-11T18:29:44.102Z,97701.75
2018-12-11T18:32:17.212Z,97706.08
2018-12-11T18:34:51.435Z,97698.13
2018-12-11T18:37:23.845Z,97706.25
2018-12-11T18:55:03.344Z,97703.88
2018-12-11T18:57:36.745Z,97710.02
2018-12-11T19:00:09.769Z,97706.39
2018-12-11T19:02:42.855Z,97711.13
2018-12-11T19:05:15.657Z,97706.07
2018-12-11T19:07:48.772Z,97699.89
2018-12-11T19:10:23.573Z,97706.16
2018-12-11T19:12:55.689Z,97713.01
2018-12-11T19:15:29.655Z,97713.11
2018-12-11T19:18:02.797Z,97708.23
2018-12-11T19:20:35.768Z,97700.39
2018-12-11T19:23:23.735Z,97705.95
2018-12-11T19:26:02.955Z,97702.01
2018-12-11T19:28:35.115Z,97697.52
2018-12-11T19:31:08.461Z,97697.62
2018-12-11T19:33:41.068Z,97692.56
2018-12-11T19:36:15.186Z,97691.37
2018-12-11T19:38:50.944Z,97686.63
2018-12-11T19:41:23.987Z,97684.41
2018-12-11T19:43:57.236Z,97686.31
2018-12-11T19:46:29.564Z,97681.19
2018-12-11T19:48:59.745Z,97688.16
2018-12-11T19:51:30.925Z,97680.81
2018-12-11T20:04:06.961Z,97670.93
2018-12-11T20:06:39.932Z,97670.03
2018-12-11T20:09:16.904Z,97673.36
2018-12-11T20:11:49.840Z,97670.11
2018-12-11T20:14:23.882Z,97666.83
2018-12-11T20:16:57.150Z,97666.98
2018-12-11T20:19:34.201Z,97668.89
2018-12-11T20:22:11.135Z,97663.83
2018-12-11T20:24:44.249Z,97666.34
2018-12-11T20:27:21.299Z,97674.60
2018-12-11T20:29:53.748Z,97665.30
2018-12-11T20:32:24.855Z,97666.34
2018-12-11T20:35:02.749Z,97673.56
2018-12-11T20:37:35.948Z,97674.83
2018-12-11T20:40:09.004Z,97673.37
2018-12-11T20:42:40.046Z,97675.61
2018-12-11T20:45:11.232Z,97674.33
2018-12-11T20:47:43.513Z,97673.64
2018-12-11T20:50:15.839Z,97673.37
2018-12-11T20:52:53.104Z,97670.00
2018-12-11T20:55:29.259Z,97672.27
2018-12-11T20:58:02.391Z,97675.63
2018-12-11T21:00:36.910Z,97675.25
2018-12-11T21:03:09.771Z,97668.97
2018-12-11T21:08:22.357Z,97679.88
2018-12-11T21:10:59.434Z,97679.53
2018-12-11T21:13:32.643Z,97673.33
2018-12-11T21:16:10.962Z,97681.02
2018-12-11T21:18:39.982Z,97683.13
2018-12-11T21:21:16.545Z,97675.04
2018-12-11T21:23:49.084Z,97667.49
2018-12-11T21:26:22.125Z,97670.39
2018-12-11T21:28:55.379Z,97680.05
2018-12-11T21:31:28.468Z,97676.19
2018-12-11T21:34:05.518Z,97680.91
2018-12-11T21:36:38.692Z,97678.04
2018-12-11T21:39:11.920Z,97677.56
2018-12-11T21:41:48.169Z,97674.24
2018-12-11T21:44:22.688Z,97672.42
2018-12-11T21:46:59.619Z,97671.03
2018-12-11T21:49:33.011Z,97671.77
2018-12-11T21:52:06.178Z,97668.32
2018-12-11T21:54:39.724Z,97677.97
2018-12-11T21:57:17.745Z,97685.45
2018-12-11T21:59:54.455Z,97678.55
2018-12-11T22:02:32.009Z,97665.88
2018-12-11T22:05:09.156Z,97671.56
2018-12-11T22:07:46.807Z,97673.95
2018-12-11T22:10:19.942Z,97670.45
2018-12-11T22:12:53.426Z,97671.06
2018-12-11T22:15:30.277Z,97666.16
2018-12-11T22:18:02.686Z,97668.67
2018-12-11T22:20:38.792Z,97671.50
2018-12-11T22:23:15.985Z,97670.87
2018-12-11T22:25:52.057Z,97670.07
2018-12-11T22:28:24.206Z,97677.56
2018-12-11T22:31:00.350Z,97682.94
2018-12-11T22:33:32.931Z,97677.05
2018-12-11T22:36:09.971Z,97680.11
2018-12-11T22:38:46.139Z,97675.58
2018-12-11T22:41:22.380Z,97679.98
2018-12-11T22:43:55.331Z,97676.82
2018-12-11T22:46:27.642Z,97675.80
2018-12-11T22:48:57.782Z,97670.83
2018-12-11T22:51:30.103Z,97674.82
2018-12-11T22:54:03.267Z,97672.30
2018-12-11T22:56:36.011Z,97678.51
2018-12-11T22:59:12.253Z,97667.08
2018-12-11T23:01:44.724Z,97657.59
2018-12-11T23:04:20.757Z,97654.37
2018-12-11T23:06:56.789Z,97655.48
2018-12-11T23:19:31.532Z,97652.97
2018-12-11T23:22:03.701Z,97645.97
2018-12-11T23:24:35.939Z,97646.19
2018-12-11T23:27:07.962Z,97639.45
2018-12-11T23:29:40.097Z,97645.45
2018-12-11T23:32:12.414Z,97649.98
2018-12-11T23:34:43.421Z,97655.17
2018-12-11T23:37:19.620Z,97646.99
2018-12-11T23:39:55.890Z,97651.33
2018-12-11T23:42:32.136Z,97651.77
2018-12-11T23:45:08.769Z,97653.01
2018-12-11T23:47:41.332Z,97661.30
2018-12-11T23:50:13.436Z,97653.24
2018-12-11T23:52:45.655Z,97655.86
2018-12-11T23:55:21.856Z,97657.27
2018-12-11T23:57:54.113Z,97652.10
